Delta Poseidon — SVBF6 — position and weather

sailwx.info

Track history (hours):
 
Tides and Currents Weather Stations Pressure Air Temp Water Temp Dewpoint Dewpoint Depression Visibility Wind Speed Wind Dir Waves Ship Positions

Delta Poseidon

Last reported at 2018-Jan-19 15:24 UTC. Time now 2018-Jan-22 04:32 UTC.
Position N 39°50' W 031°50'.

Length 274 m; draft 13.4 m.

Type: Tanker. MMSI: 241086000.

Date/timePositionNaut miles runAvg speedWind from/ knotsBaromVisibWave heightAir tempDewpointWater temp
2018-Jan-19 15:24N 39°50' W 031°50'8912.3
2018-Jan-19 08:13N 40°20' W 030°01'612.3
2018-Jan-19 07:44N 40°22' W 029°54'412.1
2018-Jan-19 07:26N 40°23' W 029°49'712.3
2018-Jan-19 06:52N 40°26' W 029°41'512.3
2018-Jan-19 06:26N 40°27' W 029°34'512.3
2018-Jan-19 05:59N 40°29' W 029°27'2012.3
2018-Jan-19 04:21N 40°36' W 029°03'712.4
2018-Jan-19 03:49N 40°38' W 028°54'912.4
2018-Jan-19 03:07N 40°41' W 028°44'3112.4
2018-Jan-19 00:37N 40°51' W 028°05'2012.3
2018-Jan-18 22:58N 40°58' W 027°40'  
2018-Jan-12 06:15N 57°41' E 011°01'314.1
2018-Jan-12 06:01N 57°39' E 011°06'714.1
2018-Jan-12 05:30N 57°34' E 011°15'714.0
2018-Jan-12 05:01N 57°29' E 011°25'714.0
2018-Jan-12 04:31N 57°22' E 011°30'714.0
2018-Jan-12 04:01N 57°16' E 011°34'713.9
2018-Jan-12 03:30N 57°09' E 011°39'713.2
2018-Jan-12 03:01N 57°03' E 011°43'713.1
2018-Jan-12 02:30N 56°57' E 011°47'713.5
2018-Jan-12 02:01N 56°51' E 011°50'612.5
2018-Jan-12 01:29N 56°44' E 011°52'613.2
2018-Jan-12 01:00N 56°39' E 011°47'713.2
2018-Jan-12 00:30N 56°33' E 011°41'613.1
2018-Jan-12 00:00N 56°27' E 011°35'6611.1
2018-Jan-11 18:03N 55°24' E 011°00'613.3
2018-Jan-11 17:34N 55°18' E 011°03'213.8
2018-Jan-11 17:27N 55°17' E 011°04'511.5
2018-Jan-11 17:00N 55°11' E 011°04'612.0
2018-Jan-11 16:29N 55°06' E 010°59'713.8
2018-Jan-11 16:00N 54°59' E 010°59'611.8
2018-Jan-11 15:30N 54°55' E 010°52'510.5
2018-Jan-11 15:00N 54°50' E 010°50'612.7
2018-Jan-11 14:30N 54°44' E 010°47'510.8
2018-Jan-11 14:00N 54°39' E 010°51'612.7
2018-Jan-11 13:30N 54°36' E 011°01'612.5
2018-Jan-11 13:01N 54°35' E 011°11'612.8
2018-Jan-11 12:31N 54°33' E 011°21'612.6
2018-Jan-11 12:00N 54°30' E 011°32'612.8
2018-Jan-11 11:30N 54°28' E 011°42'713.1
2018-Jan-11 11:00N 54°26' E 011°53'612.8
2018-Jan-11 10:30N 54°27' E 012°04'510.6
2018-Jan-11 10:00N 54°29' E 012°12'810.5
2018-Jan-11 09:16N 54°36' E 012°16'4 5.9
2018-Jan-11 08:31N 54°38' E 012°22'0 5.9
2018-Jan-11 08:30N 54°39' E 012°23'3 5.2
2018-Jan-11 08:00N 54°40' E 012°26'3 5.6
2018-Jan-11 07:30N 54°41' E 012°30'50 9.6
2018-Jan-11 02:15N 55°01' E 013°51'512.1
2018-Jan-11 01:50N 55°02' E 013°59'411.8
2018-Jan-11 01:29N 55°05' E 014°05'612.2
2018-Jan-11 01:00N 55°09' E 014°12'612.2
2018-Jan-11 00:30N 55°14' E 014°19'612.2
2018-Jan-11 00:00N 55°18' E 014°26'612.1
2018-Jan-10 23:30N 55°23' E 014°32'612.0
2018-Jan-10 23:00N 55°27' E 014°40'612.2
2018-Jan-10 22:30N 55°30' E 014°49'611.9
2018-Jan-10 22:00N 55°33' E 014°58'611.9
2018-Jan-10 21:30N 55°35' E 015°08'611.7
2018-Jan-10 21:00N 55°38' E 015°18'611.8
2018-Jan-10 20:30N 55°39' E 015°28'611.7
2018-Jan-10 20:00N 55°40' E 015°38'611.7
2018-Jan-10 19:30N 55°42' E 015°48'611.8
2018-Jan-10 19:00N 55°43' E 015°58'611.8
2018-Jan-10 18:30N 55°45' E 016°08'611.8
2018-Jan-10 18:00N 55°46' E 016°18'611.8
2018-Jan-10 17:30N 55°48' E 016°28'611.8
2018-Jan-10 16:59N 55°49' E 016°39'  
Track history (hours):
 
Tides and Currents Weather Stations Pressure Air Temp Water Temp Dewpoint Dewpoint Depression Visibility Wind Speed Wind Dir Waves Ship Positions

Delta Poseidon

Last reported at 2018-Jan-19 15:24 UTC. Time now 2018-Jan-22 04:32 UTC.
Position N 39°50' W 031°50'.

Length 274 m; draft 13.4 m.

Type: Tanker. MMSI: 241086000.

Date/timePositionNaut miles runAvg speedWind from/ knotsBaromVisibWave heightAir tempDewpointWater temp
2018-Jan-19 15:24N 39°50' W 031°50'8912.3
2018-Jan-19 08:13N 40°20' W 030°01'612.3
2018-Jan-19 07:44N 40°22' W 029°54'412.1
2018-Jan-19 07:26N 40°23' W 029°49'712.3
2018-Jan-19 06:52N 40°26' W 029°41'512.3
2018-Jan-19 06:26N 40°27' W 029°34'512.3
2018-Jan-19 05:59N 40°29' W 029°27'2012.3
2018-Jan-19 04:21N 40°36' W 029°03'712.4
2018-Jan-19 03:49N 40°38' W 028°54'912.4
2018-Jan-19 03:07N 40°41' W 028°44'3112.4
2018-Jan-19 00:37N 40°51' W 028°05'2012.3
2018-Jan-18 22:58N 40°58' W 027°40'  
2018-Jan-12 06:15N 57°41' E 011°01'314.1
2018-Jan-12 06:01N 57°39' E 011°06'714.1
2018-Jan-12 05:30N 57°34' E 011°15'714.0
2018-Jan-12 05:01N 57°29' E 011°25'714.0
2018-Jan-12 04:31N 57°22' E 011°30'714.0
2018-Jan-12 04:01N 57°16' E 011°34'713.9
2018-Jan-12 03:30N 57°09' E 011°39'713.2
2018-Jan-12 03:01N 57°03' E 011°43'713.1
2018-Jan-12 02:30N 56°57' E 011°47'713.5
2018-Jan-12 02:01N 56°51' E 011°50'612.5
2018-Jan-12 01:29N 56°44' E 011°52'613.2
2018-Jan-12 01:00N 56°39' E 011°47'713.2
2018-Jan-12 00:30N 56°33' E 011°41'613.1
2018-Jan-12 00:00N 56°27' E 011°35'6611.1
2018-Jan-11 18:03N 55°24' E 011°00'613.3
2018-Jan-11 17:34N 55°18' E 011°03'213.8
2018-Jan-11 17:27N 55°17' E 011°04'511.5
2018-Jan-11 17:00N 55°11' E 011°04'612.0
2018-Jan-11 16:29N 55°06' E 010°59'713.8
2018-Jan-11 16:00N 54°59' E 010°59'611.8
2018-Jan-11 15:30N 54°55' E 010°52'510.5
2018-Jan-11 15:00N 54°50' E 010°50'612.7
2018-Jan-11 14:30N 54°44' E 010°47'510.8
2018-Jan-11 14:00N 54°39' E 010°51'612.7
2018-Jan-11 13:30N 54°36' E 011°01'612.5
2018-Jan-11 13:01N 54°35' E 011°11'612.8
2018-Jan-11 12:31N 54°33' E 011°21'612.6
2018-Jan-11 12:00N 54°30' E 011°32'612.8
2018-Jan-11 11:30N 54°28' E 011°42'713.1
2018-Jan-11 11:00N 54°26' E 011°53'612.8
2018-Jan-11 10:30N 54°27' E 012°04'510.6
2018-Jan-11 10:00N 54°29' E 012°12'810.5
2018-Jan-11 09:16N 54°36' E 012°16'4 5.9
2018-Jan-11 08:31N 54°38' E 012°22'0 5.9
2018-Jan-11 08:30N 54°39' E 012°23'3 5.2
2018-Jan-11 08:00N 54°40' E 012°26'3 5.6
2018-Jan-11 07:30N 54°41' E 012°30'50 9.6
2018-Jan-11 02:15N 55°01' E 013°51'512.1
2018-Jan-11 01:50N 55°02' E 013°59'411.8
2018-Jan-11 01:29N 55°05' E 014°05'612.2
2018-Jan-11 01:00N 55°09' E 014°12'612.2
2018-Jan-11 00:30N 55°14' E 014°19'612.2
2018-Jan-11 00:00N 55°18' E 014°26'612.1
2018-Jan-10 23:30N 55°23' E 014°32'612.0
2018-Jan-10 23:00N 55°27' E 014°40'612.2
2018-Jan-10 22:30N 55°30' E 014°49'611.9
2018-Jan-10 22:00N 55°33' E 014°58'611.9
2018-Jan-10 21:30N 55°35' E 015°08'611.7
2018-Jan-10 21:00N 55°38' E 015°18'611.8
2018-Jan-10 20:30N 55°39' E 015°28'611.7
2018-Jan-10 20:00N 55°40' E 015°38'611.7
2018-Jan-10 19:30N 55°42' E 015°48'611.8
2018-Jan-10 19:00N 55°43' E 015°58'611.8
2018-Jan-10 18:30N 55°45' E 016°08'611.8
2018-Jan-10 18:00N 55°46' E 016°18'611.8
2018-Jan-10 17:30N 55°48' E 016°28'611.8
2018-Jan-10 16:59N 55°49' E 016°39'  

Dump ship's entire track history